Time;durP1;ratioP1;P1;durP2;ratioP2;P2;SDS_P1;SDS_P2;PMS_P1;PMS_P2;Temp;Humidity;BMP_temperature;BMP_pressure;BME280_temperature;BME280_humidity;BME280_pressure;Samples;Min_cycle;Max_cycle;Signal;HPM_P1;HPM_P2
2021/11/27 00:00:41;;;;;;;27.20;12.30;;;;;;;20.10;24.10;95726.75;5033284;28;20044;-80
2021/11/27 00:03:07;;;;;;;27.37;12.80;;;;;;;18.46;25.94;95726.16;5034153;28;20083;-81
2021/11/27 00:05:37;;;;;;;29.58;13.15;;;;;;;18.96;25.57;95740.97;5034254;28;20482;-80
2021/11/27 00:08:04;;;;;;;28.60;12.63;;;;;;;20.14;24.14;95742.06;5033000;28;20037;-80
2021/11/27 00:10:32;;;;;;;26.85;13.50;;;;;;;19.83;24.07;95750.59;5033944;28;20025;-80
2021/11/27 00:13:00;;;;;;;22.88;12.20;;;;;;;19.72;24.32;95747.44;5032767;28;20033;-80
2021/11/27 00:15:28;;;;;;;20.35;11.07;;;;;;;20.64;23.10;95744.25;5033299;28;20025;-80
2021/11/27 00:17:56;;;;;;;21.08;11.35;;;;;;;20.46;23.21;95752.66;5031845;28;20038;-80
2021/11/27 00:20:25;;;;;;;20.75;9.80;;;;;;;19.86;23.90;95762.81;5032231;28;20034;-80
2021/11/27 00:22:52;;;;;;;19.70;9.88;;;;;;;20.16;23.67;95755.56;5029006;28;20048;-80
2021/11/27 00:25:19;;;;;;;21.95;9.93;;;;;;;19.31;24.42;95762.63;5032207;28;20021;-80
2021/11/27 00:27:46;;;;;;;16.17;8.38;;;;;;;19.25;24.58;95755.34;5031029;28;20100;-80
2021/11/27 00:30:16;;;;;;;19.42;10.35;;;;;;;18.65;25.58;95768.00;5033206;28;20037;-80
2021/11/27 00:32:42;;;;;;;17.67;9.23;;;;;;;18.49;25.78;95780.06;5032044;28;20489;-80
2021/11/27 00:35:10;;;;;;;18.45;9.40;;;;;;;18.65;25.40;95771.53;5031647;28;20041;-80
2021/11/27 00:37:37;;;;;;;24.40;9.77;;;;;;;19.13;24.50;95781.22;5032381;28;20064;-80
2021/11/27 00:40:09;;;;;;;18.65;9.48;;;;;;;19.45;24.34;95780.78;5032334;28;20458;-80
2021/11/27 00:42:36;;;;;;;15.77;7.75;;;;;;;19.56;24.26;95783.91;5032844;28;20061;-80
2021/11/27 00:45:10;;;;;;;16.55;8.65;;;;;;;19.54;24.24;95782.81;5032169;28;20037;-80
2021/11/27 00:47:39;;;;;;;16.50;8.00;;;;;;;20.42;23.00;95788.25;5031292;28;20080;-80
2021/11/27 00:50:06;;;;;;;20.27;10.88;;;;;;;20.70;22.50;95779.88;5031086;28;20033;-81
2021/11/27 00:52:32;;;;;;;15.40;7.18;;;;;;;19.88;23.33;95800.06;5032482;28;20037;-81
2021/11/27 00:54:59;;;;;;;15.10;7.60;;;;;;;20.09;23.45;95804.00;5031946;28;20029;-80
2021/11/27 00:57:25;;;;;;;15.85;7.35;;;;;;;20.22;23.16;95809.44;5032872;28;20505;-80
2021/11/27 00:59:51;;;;;;;14.18;7.55;;;;;;;19.16;24.52;95806.13;5031433;28;20068;-78
2021/11/27 01:02:17;;;;;;;17.98;8.95;;;;;;;17.65;26.24;95809.50;5032140;28;20040;-80
2021/11/27 01:04:43;;;;;;;14.23;7.85;;;;;;;18.23;25.80;95814.69;5026134;28;20030;-80
2021/11/27 01:07:10;;;;;;;19.45;7.95;;;;;;;18.76;25.30;95807.28;5032257;28;20026;-80
2021/11/27 01:09:38;;;;;;;15.52;8.15;;;;;;;18.38;25.45;95810.97;5032068;28;20076;-80
2021/11/27 01:12:05;;;;;;;12.27;6.45;;;;;;;18.29;25.70;95807.34;5033248;28;20044;-81
2021/11/27 01:14:32;;;;;;;16.35;7.18;;;;;;;18.22;25.56;95819.50;5032157;28;20036;-80
2021/11/27 01:17:04;;;;;;;11.38;7.00;;;;;;;17.42;27.00;95806.25;5027920;28;20500;-80
2021/11/27 01:19:31;;;;;;;12.43;6.65;;;;;;;17.73;26.35;95815.59;5030565;28;20108;-80
2021/11/27 01:22:01;;;;;;;13.25;6.93;;;;;;;17.25;27.01;95811.13;5031671;28;20058;-80
2021/11/27 01:24:28;;;;;;;10.18;6.28;;;;;;;18.03;25.57;95786.44;5021101;28;20045;-81
2021/11/27 01:26:54;;;;;;;11.98;6.18;;;;;;;18.72;24.96;95804.63;5032143;28;20091;-80
2021/11/27 01:29:22;;;;;;;8.50;4.82;;;;;;;18.84;25.26;95798.22;5032051;28;20025;-80
2021/11/27 01:31:48;;;;;;;10.82;5.68;;;;;;;18.31;25.06;95794.56;5030882;28;20485;-80
2021/11/27 01:34:15;;;;;;;11.85;6.05;;;;;;;17.15;27.07;95806.72;5032010;28;20497;-80
2021/11/27 01:36:41;;;;;;;12.07;5.72;;;;;;;17.05;27.52;95805.03;5031526;28;20035;-80
2021/11/27 01:39:08;;;;;;;14.35;6.45;;;;;;;18.39;25.48;95806.97;5031479;28;20033;-80
2021/11/27 01:41:36;;;;;;;8.00;5.20;;;;;;;17.79;26.06;95805.47;5031802;28;20096;-79
2021/11/27 01:44:02;;;;;;;6.88;4.68;;;;;;;18.29;25.56;95810.91;5031401;28;20044;-80
2021/11/27 01:46:29;;;;;;;12.35;7.20;;;;;;;18.11;25.93;95801.63;5034895;28;20512;-80
2021/11/27 01:48:55;;;;;;;11.10;5.05;;;;;;;17.83;26.21;95808.91;5035465;28;20057;-80
2021/11/27 01:51:23;;;;;;;8.02;5.15;;;;;;;17.79;26.02;95813.81;5035345;28;20568;-80
2021/11/27 01:53:55;;;;;;;10.15;4.82;;;;;;;18.04;25.96;95808.19;5034799;28;20091;-78
2021/11/27 01:56:27;;;;;;;8.18;4.80;;;;;;;18.42;25.31;95800.50;5036351;28;20029;-79
2021/11/27 01:58:54;;;;;;;8.65;5.30;;;;;;;18.93;24.90;95800.25;5033695;28;20422;-79
2021/11/27 02:01:25;;;;;;;7.60;4.40;;;;;;;19.49;24.19;95805.66;5035685;28;20029;-79
2021/11/27 02:03:52;;;;;;;7.57;4.38;;;;;;;19.23;24.17;95800.28;5020786;28;20034;-79
2021/11/27 02:06:20;;;;;;;6.47;3.80;;;;;;;19.45;24.08;95791.91;5035754;28;20112;-79
2021/11/27 02:08:49;;;;;;;8.95;4.47;;;;;;;19.69;23.57;95797.72;5034407;28;20033;-80
2021/11/27 02:11:22;;;;;;;6.80;4.07;;;;;;;20.63;22.75;95798.47;5028523;28;20068;-79
2021/11/27 02:13:49;;;;;;;6.18;3.95;;;;;;;20.43;22.90;95803.75;5035652;28;20427;-79
2021/11/27 02:16:15;;;;;;;7.25;4.68;;;;;;;21.00;22.15;95796.41;5035285;28;20037;-79
2021/11/27 02:18:41;;;;;;;10.50;5.65;;;;;;;21.19;21.64;95795.13;5035484;28;20033;-79
2021/11/27 02:21:11;;;;;;;8.52;5.03;;;;;;;21.67;21.13;95798.84;5034745;28;20038;-79
2021/11/27 02:23:38;;;;;;;7.90;4.10;;;;;;;21.73;21.14;95790.56;5035100;28;20120;-79
2021/11/27 02:26:08;;;;;;;8.98;5.38;;;;;;;20.71;22.04;95806.50;5034228;28;20042;-79
2021/11/27 02:28:37;;;;;;;8.38;4.60;;;;;;;21.60;21.43;95796.41;5030769;28;20080;-79
2021/11/27 02:31:04;;;;;;;6.68;4.05;;;;;;;22.13;20.80;95796.59;5034356;28;20033;-79
2021/11/27 02:33:31;;;;;;;7.60;4.38;;;;;;;22.30;20.47;95805.31;5034198;28;20029;-79
2021/11/27 02:35:57;;;;;;;9.50;5.10;;;;;;;21.03;21.85;95812.19;5034594;28;20078;-79
2021/11/27 02:38:23;;;;;;;10.15;4.93;;;;;;;20.93;22.02;95812.69;5032264;28;20026;-79
2021/11/27 02:40:50;;;;;;;5.70;3.03;;;;;;;22.28;20.68;95819.00;5033919;28;20389;-79
2021/11/27 02:43:16;;;;;;;6.90;4.10;;;;;;;22.31;20.40;95810.44;5035043;28;20076;-79
2021/11/27 02:45:43;;;;;;;5.32;3.42;;;;;;;22.58;20.13;95801.06;5034001;28;20030;-79
2021/11/27 02:48:09;;;;;;;5.57;3.45;;;;;;;22.98;19.78;95800.59;5034476;28;20084;-79
2021/11/27 02:50:36;;;;;;;5.15;3.17;;;;;;;23.44;19.02;95795.28;5034767;28;20034;-79
2021/11/27 02:53:02;;;;;;;7.95;3.00;;;;;;;23.44;19.05;95809.28;5029859;28;20063;-79
2021/11/27 02:55:28;;;;;;;11.38;4.00;;;;;;;23.06;19.50;95810.91;5027326;28;20037;-79
2021/11/27 02:57:54;;;;;;;6.78;3.95;;;;;;;22.22;20.16;95815.34;5034182;28;20103;-79
2021/11/27 03:00:22;;;;;;;8.52;3.95;;;;;;;22.28;20.45;95819.00;5033332;28;20596;-79
2021/11/27 03:02:50;;;;;;;6.15;3.50;;;;;;;22.59;19.99;95822.97;5031227;28;20069;-79
2021/11/27 03:05:17;;;;;;;9.98;5.35;;;;;;;21.77;20.85;95833.88;5031800;28;20108;-79
2021/11/27 03:07:44;;;;;;;7.22;4.50;;;;;;;21.17;21.65;95839.47;5034516;28;20069;-79
2021/11/27 03:10:13;;;;;;;6.80;4.57;;;;;;;20.02;22.80;95856.44;5032191;28;20029;-79
2021/11/27 03:12:39;;;;;;;9.68;6.22;;;;;;;18.88;24.28;95873.16;5034103;28;20034;-79
2021/11/27 03:15:11;;;;;;;9.52;5.93;;;;;;;19.16;24.06;95870.09;5034177;28;20030;-79
2021/11/27 03:17:38;;;;;;;10.55;6.78;;;;;;;19.06;24.70;95870.50;5035085;28;20030;-79
2021/11/27 03:20:06;;;;;;;16.83;10.05;;;;;;;17.58;26.03;95870.75;5033859;28;20037;-79
2021/11/27 03:22:32;;;;;;;19.13;9.65;;;;;;;18.04;25.66;95882.41;5034639;28;20080;-79
2021/11/27 03:24:58;;;;;;;14.15;8.88;;;;;;;19.19;24.29;95876.75;5034184;28;20112;-79
2021/11/27 03:27:25;;;;;;;15.00;9.25;;;;;;;20.57;22.40;95874.81;5029836;28;20104;-79
2021/11/27 03:29:51;;;;;;;15.35;8.93;;;;;;;19.93;22.92;95874.66;5033594;28;20029;-79
2021/11/27 03:32:19;;;;;;;13.27;8.13;;;;;;;18.63;24.84;95888.72;5033396;28;20428;-79
2021/11/27 03:34:46;;;;;;;13.05;8.02;;;;;;;17.83;25.91;95887.41;5024119;28;20453;-79
2021/11/27 03:37:13;;;;;;;14.95;8.23;;;;;;;19.38;24.11;95891.56;5033326;28;20565;-79
2021/11/27 03:39:40;;;;;;;14.35;8.27;;;;;;;19.34;23.97;95897.25;5032755;28;20391;-79
2021/11/27 03:42:09;;;;;;;15.48;9.07;;;;;;;18.49;25.14;95905.09;5033730;28;20042;-79
2021/11/27 03:44:36;;;;;;;13.57;8.40;;;;;;;18.18;25.38;95899.34;5025114;28;20394;-79
2021/11/27 03:47:04;;;;;;;15.77;9.23;;;;;;;18.47;24.90;95907.53;5032921;28;20095;-79
2021/11/27 03:49:31;;;;;;;13.32;7.75;;;;;;;18.39;25.40;95906.22;5033513;28;20037;-79
2021/11/27 03:51:58;;;;;;;13.75;9.18;;;;;;;19.37;23.97;95907.50;5033153;28;20037;-79
2021/11/27 03:54:25;;;;;;;16.48;8.75;;;;;;;19.30;24.33;95914.06;5030352;28;20038;-79
2021/11/27 03:56:52;;;;;;;11.93;6.60;;;;;;;18.48;24.72;95917.44;5033921;28;20554;-79
2021/11/27 03:59:19;;;;;;;15.07;7.95;;;;;;;19.82;23.48;95926.44;5032352;28;20397;-79
2021/11/27 04:01:46;;;;;;;11.75;6.93;;;;;;;20.71;22.28;95941.13;5034569;28;20041;-79
2021/11/27 04:04:12;;;;;;;10.80;7.22;;;;;;;21.16;21.89;95935.63;5034066;28;20531;-79
2021/11/27 04:06:38;;;;;;;8.70;6.45;;;;;;;21.40;21.35;95937.75;5033076;28;20113;-79
2021/11/27 04:09:07;;;;;;;9.27;5.72;;;;;;;21.46;21.36;95930.28;5032076;28;20556;-79
2021/11/27 04:11:35;;;;;;;11.38;6.25;;;;;;;21.40;21.36;95940.56;5027197;28;20179;-79
2021/11/27 04:14:02;;;;;;;9.32;5.90;;;;;;;21.07;21.88;95949.56;5032212;28;20038;-79
2021/11/27 04:16:28;;;;;;;10.45;6.10;;;;;;;20.76;21.95;95951.69;5028926;28;20033;-79
2021/11/27 04:18:54;;;;;;;11.30;6.25;;;;;;;20.71;22.31;95945.94;5029833;28;20053;-79
2021/11/27 04:21:21;;;;;;;7.50;5.25;;;;;;;21.49;21.42;95943.31;5032337;28;20084;-79
2021/11/27 04:23:49;;;;;;;10.23;6.55;;;;;;;21.33;21.11;95939.63;5032489;28;20035;-79
2021/11/27 04:26:16;;;;;;;7.97;5.43;;;;;;;21.45;21.36;95953.88;5031277;28;20049;-79
2021/11/27 04:28:43;;;;;;;6.95;5.00;;;;;;;22.02;20.76;95950.03;5033119;28;20033;-79
2021/11/27 04:31:09;;;;;;;8.10;4.93;;;;;;;22.32;20.47;95945.41;5029970;28;20041;-81
2021/11/27 04:33:37;;;;;;;9.13;6.15;;;;;;;22.18;20.45;95938.47;5032399;28;20049;-79
2021/11/27 04:36:04;;;;;;;9.52;5.93;;;;;;;22.17;20.53;95947.34;5032126;28;20122;-79
2021/11/27 04:38:31;;;;;;;9.90;5.60;;;;;;;21.40;21.06;95949.69;5032059;28;20041;-79
2021/11/27 04:40:58;;;;;;;7.05;4.38;;;;;;;21.19;21.44;95951.41;5031975;28;20482;-79
2021/11/27 04:43:24;;;;;;;7.90;4.38;;;;;;;21.68;20.89;95953.97;5023022;28;20029;-79
2021/11/27 04:45:50;;;;;;;8.25;5.15;;;;;;;21.83;20.77;95951.31;5032355;28;20117;-81
2021/11/27 04:48:17;;;;;;;13.45;7.97;;;;;;;21.82;20.78;95950.53;5031836;28;20482;-79
2021/11/27 04:50:43;;;;;;;10.48;5.82;;;;;;;21.95;20.50;95947.56;5031754;28;20048;-81
2021/11/27 04:53:10;;;;;;;7.78;4.88;;;;;;;21.71;20.66;95955.06;5027663;28;20053;-79
2021/11/27 04:55:36;;;;;;;8.18;5.40;;;;;;;22.36;20.08;95949.56;5032741;28;20041;-79
2021/11/27 04:58:03;;;;;;;7.03;4.82;;;;;;;22.35;20.21;95948.03;5032558;28;20394;-79
2021/11/27 05:00:40;;;;;;;7.25;4.35;;;;;;;22.27;20.24;95955.22;5031963;28;20095;-80
2021/11/27 05:03:06;;;;;;;7.68;4.65;;;;;;;22.82;19.88;95960.53;5032022;28;20038;-79
2021/11/27 05:05:33;;;;;;;7.50;5.15;;;;;;;23.08;19.46;95962.34;5032356;28;20086;-79
2021/11/27 05:08:00;;;;;;;4.50;2.97;;;;;;;23.15;19.44;95966.81;5032669;28;20098;-80
2021/11/27 05:10:27;;;;;;;4.45;3.10;;;;;;;23.53;19.14;95969.63;5029961;28;20029;-80
2021/11/27 05:12:53;;;;;;;6.78;4.30;;;;;;;24.12;18.27;95962.03;5029995;28;20041;-79
2021/11/27 05:15:20;;;;;;;7.25;4.22;;;;;;;24.39;17.98;95972.91;5032234;28;20040;-80
2021/11/27 05:17:46;;;;;;;6.00;3.25;;;;;;;24.69;18.00;95987.66;5031788;28;20053;-81
2021/11/27 05:20:12;;;;;;;3.60;2.88;;;;;;;24.88;17.64;95991.00;5027275;28;20374;-79
2021/11/27 05:22:38;;;;;;;5.10;3.35;;;;;;;24.93;17.63;95979.84;5030375;28;20096;-79
2021/11/27 05:25:06;;;;;;;3.28;2.72;;;;;;;24.94;17.50;95980.63;5031885;28;20397;-79
2021/11/27 05:27:34;;;;;;;4.07;2.75;;;;;;;24.89;17.68;95970.06;5030845;28;20030;-79
2021/11/27 05:30:00;;;;;;;3.08;2.20;;;;;;;25.00;17.57;95976.63;5025466;28;20034;-79
2021/11/27 05:35:00;;;;;;;3.65;2.50;;;;;;;25.02;17.51;95976.91;5032118;28;20485;-79
2021/11/27 05:37:26;;;;;;;3.72;2.67;;;;;;;25.01;17.50;95980.19;5031597;28;20030;-79
2021/11/27 05:39:52;;;;;;;3.72;2.40;;;;;;;24.94;17.72;95977.81;5032863;28;20060;-79
2021/11/27 05:42:19;;;;;;;3.00;2.40;;;;;;;24.83;17.95;95975.63;5019496;28;20034;-79
2021/11/27 05:44:51;;;;;;;4.15;2.25;;;;;;;24.95;17.80;95976.56;5013996;28;20104;-80
2021/11/27 05:47:19;;;;;;;2.78;2.28;;;;;;;25.17;17.37;95979.63;5020415;28;20030;-79
2021/11/27 05:49:45;;;;;;;3.13;2.67;;;;;;;25.22;17.52;95988.16;5031108;28;20040;-81
2021/11/27 05:52:11;;;;;;;4.20;2.22;;;;;;;25.26;17.44;95983.06;5032674;28;20033;-79
2021/11/27 05:54:37;;;;;;;4.47;2.13;;;;;;;25.12;17.52;95992.34;5032245;28;20440;-79
2021/11/27 05:57:04;;;;;;;5.95;3.05;;;;;;;24.72;17.91;95992.28;5032427;28;20036;-79
2021/11/27 05:59:31;;;;;;;2.55;2.05;;;;;;;24.59;18.20;96006.66;5032324;28;20366;-79
2021/11/27 06:02:00;;;;;;;3.40;2.65;;;;;;;24.85;17.90;96003.22;5030228;28;20034;-80
2021/11/27 06:04:26;;;;;;;4.15;2.25;;;;;;;25.22;17.66;96013.44;5033084;28;20044;-80
2021/11/27 06:06:53;;;;;;;4.50;2.13;;;;;;;25.45;17.30;96013.72;5031539;28;20018;-80
2021/11/27 06:09:19;;;;;;;2.90;2.33;;;;;;;25.47;17.12;96014.75;5031962;28;20071;-79
2021/11/27 06:11:46;;;;;;;3.83;2.50;;;;;;;25.52;17.17;96024.53;5031753;28;20236;-78
2021/11/27 06:14:12;;;;;;;3.38;2.17;;;;;;;25.55;17.36;96023.53;5031772;28;20449;-79
2021/11/27 06:16:38;;;;;;;3.63;2.35;;;;;;;25.31;17.35;96018.91;5030190;28;20520;-79
2021/11/27 06:19:05;;;;;;;4.35;2.60;;;;;;;24.98;17.88;96026.09;5030196;28;20041;-79
2021/11/27 06:21:31;;;;;;;3.15;2.70;;;;;;;24.70;18.19;96009.59;5029915;28;20200;-79
2021/11/27 06:23:58;;;;;;;4.50;3.15;;;;;;;24.21;18.69;96018.00;5029991;28;20374;-79
2021/11/27 06:26:24;;;;;;;4.25;3.25;;;;;;;23.93;19.00;96020.28;5031553;28;20030;-79
2021/11/27 06:28:51;;;;;;;3.03;2.72;;;;;;;24.04;18.85;96017.69;5029498;28;20025;-79
2021/11/27 06:31:17;;;;;;;4.38;2.83;;;;;;;24.11;18.70;96021.41;5031675;28;20488;-79
2021/11/27 06:33:43;;;;;;;5.57;2.72;;;;;;;24.14;18.96;96026.81;5035023;28;20025;-79
2021/11/27 06:36:10;;;;;;;4.07;2.88;;;;;;;24.26;18.56;96016.53;5034709;28;20036;-79
2021/11/27 06:38:36;;;;;;;4.88;3.42;;;;;;;24.25;18.70;96023.44;5034728;28;20037;-79
2021/11/27 06:41:05;;;;;;;4.93;3.17;;;;;;;24.08;18.51;96019.56;5032998;28;20432;-79
2021/11/27 06:43:31;;;;;;;6.47;3.28;;;;;;;24.02;18.45;96027.84;5031260;28;20041;-78
2021/11/27 06:45:58;;;;;;;6.40;4.03;;;;;;;23.98;18.31;96025.22;5027484;28;20444;-79
2021/11/27 06:48:24;;;;;;;5.63;3.40;;;;;;;23.60;18.58;96022.47;5029064;28;20057;-79
2021/11/27 06:50:51;;;;;;;6.57;3.55;;;;;;;23.10;19.08;96023.47;5030997;28;20034;-79
2021/11/27 06:53:17;;;;;;;4.93;2.88;;;;;;;22.87;19.69;96032.63;5031071;28;20034;-79
2021/11/27 06:55:43;;;;;;;3.92;2.70;;;;;;;22.93;19.63;96028.69;5029384;28;20029;-78
2021/11/27 06:58:09;;;;;;;4.25;2.92;;;;;;;22.91;19.90;96038.81;5034429;28;20025;-78
2021/11/27 07:00:36;;;;;;;4.38;3.00;;;;;;;23.25;19.64;96046.69;5030162;28;20120;-78
2021/11/27 07:03:02;;;;;;;5.68;3.60;;;;;;;23.36;19.37;96052.56;5032157;28;20045;-80
2021/11/27 07:05:28;;;;;;;8.18;3.72;;;;;;;23.34;19.68;96041.00;5033676;28;20033;-79
2021/11/27 07:07:54;;;;;;;4.40;2.85;;;;;;;23.63;19.37;96048.75;5033202;28;20088;-79
2021/11/27 07:10:20;;;;;;;4.50;3.28;;;;;;;23.31;19.49;96056.00;5033383;28;20038;-78
2021/11/27 07:12:47;;;;;;;6.72;4.43;;;;;;;23.12;19.85;96055.34;5021623;28;20030;-80
2021/11/27 07:15:13;;;;;;;5.40;3.70;;;;;;;23.42;19.75;96053.44;5032892;28;20037;-79
2021/11/27 07:17:40;;;;;;;4.88;3.17;;;;;;;23.95;19.17;96059.81;5026616;28;20034;-78
2021/11/27 07:20:08;;;;;;;6.22;4.00;;;;;;;24.53;18.77;96061.09;5022325;28;20068;-79
2021/11/27 07:22:34;;;;;;;5.78;3.38;;;;;;;25.01;18.15;96056.00;5025634;28;20046;-78
2021/11/27 07:25:02;;;;;;;6.45;4.10;;;;;;;25.25;18.07;96056.63;5024821;28;20049;-78
2021/11/27 07:27:28;;;;;;;5.88;3.90;;;;;;;25.07;18.00;96066.06;5026421;28;20501;-78
2021/11/27 07:29:55;;;;;;;6.35;4.40;;;;;;;25.01;18.27;96067.25;5032071;28;20191;-80
2021/11/27 07:32:21;;;;;;;5.07;3.72;;;;;;;25.20;17.99;96072.13;5024309;28;20038;-78
2021/11/27 07:34:48;;;;;;;6.68;4.60;;;;;;;25.37;18.07;96066.72;5027803;28;20053;-78
2021/11/27 07:37:14;;;;;;;6.95;4.65;;;;;;;25.56;17.90;96075.66;5025965;28;20029;-79
2021/11/27 07:39:40;;;;;;;8.23;4.97;;;;;;;25.67;18.03;96073.75;5028296;28;20445;-79
2021/11/27 07:42:07;;;;;;;9.60;6.50;;;;;;;25.76;17.81;96081.28;5032441;28;20405;-78
2021/11/27 07:44:33;;;;;;;10.00;5.68;;;;;;;25.61;18.14;96074.97;5025598;28;20034;-79
2021/11/27 07:46:59;;;;;;;6.07;3.88;;;;;;;25.58;18.27;96071.09;5027110;28;20532;-80
2021/11/27 07:49:26;;;;;;;7.45;4.38;;;;;;;25.33;18.51;96063.34;5028098;28;20477;-80
2021/11/27 07:51:53;;;;;;;7.32;3.97;;;;;;;25.65;18.69;96065.06;5030347;28;20029;-79
2021/11/27 07:54:20;;;;;;;8.20;4.35;;;;;;;26.01;18.25;96072.88;5029303;28;20033;-78
2021/11/27 07:56:47;;;;;;;7.47;4.38;;;;;;;26.32;17.97;96069.38;5033918;28;20079;-78
2021/11/27 07:59:13;;;;;;;10.15;4.95;;;;;;;26.53;17.22;96076.50;5028413;28;20464;-78
2021/11/27 08:01:40;;;;;;;7.10;4.57;;;;;;;26.45;17.70;96080.22;5026934;28;20503;-78
2021/11/27 08:04:06;;;;;;;11.60;5.35;;;;;;;26.58;17.58;96078.56;5029624;28;20474;-78
2021/11/27 08:06:32;;;;;;;10.00;5.03;;;;;;;26.83;17.63;96073.41;5022464;28;20022;-78
2021/11/27 08:08:58;;;;;;;8.73;4.97;;;;;;;26.69;17.49;96080.72;5027516;28;20073;-79
2021/11/27 08:11:27;;;;;;;8.98;5.05;;;;;;;26.24;17.53;96079.53;5030489;28;20032;-79
2021/11/27 08:13:53;;;;;;;7.70;4.82;;;;;;;25.90;17.78;96078.41;5024725;28;20487;-79
2021/11/27 08:16:20;;;;;;;8.43;4.85;;;;;;;25.47;18.09;96079.41;5026810;28;20485;-79
2021/11/27 08:18:47;;;;;;;6.45;3.88;;;;;;;24.78;18.79;96073.78;5023675;28;20455;-78
2021/11/27 08:21:14;;;;;;;5.18;4.00;;;;;;;24.58;18.62;96080.84;5028918;28;20037;-79
2021/11/27 08:23:41;;;;;;;6.68;4.05;;;;;;;24.55;18.92;96084.63;5024346;28;20060;-78
2021/11/27 08:26:07;;;;;;;8.73;4.65;;;;;;;24.81;19.09;96086.84;5021231;28;20045;-78
2021/11/27 08:28:33;;;;;;;6.15;4.32;;;;;;;25.04;18.80;96092.28;5023082;28;20030;-79
2021/11/27 08:30:59;;;;;;;12.13;6.05;;;;;;;25.52;18.43;96097.59;5024294;28;20624;-79
2021/11/27 08:33:26;;;;;;;11.43;5.45;;;;;;;25.80;18.04;96102.28;5029200;28;20059;-78
2021/11/27 08:35:52;;;;;;;11.75;5.32;;;;;;;25.95;18.05;96105.78;5024490;28;20592;-79
2021/11/27 08:38:19;;;;;;;10.45;6.05;;;;;;;25.66;18.20;96113.59;5018545;28;20034;-78
2021/11/27 08:40:45;;;;;;;7.15;4.25;;;;;;;25.51;18.21;96126.97;5021868;28;20029;-79
2021/11/27 08:43:13;;;;;;;9.48;5.50;;;;;;;25.39;18.53;96123.19;5019913;28;20493;-79
2021/11/27 08:45:40;;;;;;;11.35;5.63;;;;;;;25.44;18.39;96136.56;5024073;28;20038;-78
2021/11/27 08:48:07;;;;;;;10.20;5.20;;;;;;;25.62;18.27;96132.72;5024233;28;20829;-79
2021/11/27 08:50:33;;;;;;;13.73;5.82;;;;;;;25.93;17.98;96138.47;5022694;28;20061;-78
2021/11/27 08:53:00;;;;;;;13.30;5.80;;;;;;;26.21;17.86;96133.97;5019592;28;20045;-79
2021/11/27 08:55:27;;;;;;;11.02;5.15;;;;;;;26.42;17.66;96135.47;5019853;28;20056;-78
2021/11/27 08:57:53;;;;;;;8.73;4.82;;;;;;;26.04;17.45;96133.00;5019866;28;20037;-78
2021/11/27 09:00:20;;;;;;;9.77;4.60;;;;;;;25.99;17.65;96137.28;5023347;28;20065;-78
2021/11/27 09:05:32;;;;;;;7.20;4.40;;;;;;;26.35;17.53;96133.09;5022387;28;20100;-78
2021/11/27 09:07:58;;;;;;;6.35;4.15;;;;;;;26.45;17.51;96140.13;5024867;28;20126;-78
2021/11/27 09:10:24;;;;;;;8.00;4.82;;;;;;;26.22;17.96;96143.19;5027436;28;20029;-78
2021/11/27 09:12:51;;;;;;;13.35;7.35;;;;;;;25.80;18.18;96144.47;5029969;28;20421;-79
2021/11/27 09:15:17;;;;;;;9.75;5.28;;;;;;;25.01;18.99;96149.44;5029712;28;20033;-79
2021/11/27 09:17:43;;;;;;;6.43;4.28;;;;;;;24.80;19.89;96149.84;5029875;28;20037;-80
2021/11/27 09:20:10;;;;;;;7.57;4.47;;;;;;;25.32;19.09;96141.22;5026142;28;20034;-79
2021/11/27 09:22:36;;;;;;;5.72;3.60;;;;;;;25.98;18.37;96146.97;5020963;28;20034;-79
2021/11/27 09:25:03;;;;;;;8.75;4.45;;;;;;;26.17;17.98;96139.03;5027300;28;20034;-79
2021/11/27 09:27:29;;;;;;;8.23;4.47;;;;;;;26.06;17.59;96133.28;5018178;28;20049;-79
2021/11/27 09:29:55;;;;;;;5.80;4.03;;;;;;;26.56;18.78;96137.41;5023032;28;20029;-79
2021/11/27 09:32:22;;;;;;;5.72;3.75;;;;;;;26.41;18.28;96131.13;5022791;28;20512;-79
2021/11/27 09:34:49;;;;;;;7.32;4.68;;;;;;;26.78;17.94;96138.91;5029540;28;20030;-79
2021/11/27 09:37:17;;;;;;;7.07;3.47;;;;;;;26.84;17.78;96131.28;5027996;28;20067;-80
2021/11/27 09:39:43;;;;;;;6.30;4.38;;;;;;;27.00;17.98;96141.91;5026149;28;20058;-80
2021/11/27 09:42:16;;;;;;;9.43;4.32;;;;;;;27.32;17.06;96138.56;5041431;28;20041;-80
2021/11/27 09:44:52;;;;;;;4.85;3.67;;;;;;;26.80;17.60;96150.44;5025139;28;20541;-79
2021/11/27 09:47:19;;;;;;;7.53;4.30;;;;;;;26.96;17.49;96142.13;5027823;28;20057;-80
2021/11/27 09:49:48;;;;;;;9.57;4.47;;;;;;;26.69;18.06;96137.78;5026935;28;20029;-79
2021/11/27 09:52:14;;;;;;;5.82;4.05;;;;;;;26.66;18.10;96133.16;5022758;28;20486;-80
2021/11/27 09:54:41;;;;;;;7.63;3.28;;;;;;;25.58;18.72;96141.34;5025380;28;20076;-79
2021/11/27 09:57:10;;;;;;;5.38;3.65;;;;;;;24.81;20.11;96149.34;5028323;28;20033;-80
2021/11/27 09:59:40;;;;;;;7.35;4.85;;;;;;;24.18;20.46;96155.63;5025585;28;20029;-80
2021/11/27 10:02:13;;;;;;;8.38;5.72;;;;;;;24.16;19.92;96155.28;5029133;28;20030;-79
2021/11/27 10:04:51;;;;;;;6.38;3.70;;;;;;;23.31;20.63;96156.78;5025269;28;20037;-81
2021/11/27 10:07:20;;;;;;;7.35;4.47;;;;;;;24.10;20.48;96163.63;5027393;28;20029;-79
2021/11/27 10:09:48;;;;;;;9.77;5.88;;;;;;;24.20;20.00;96158.72;5030561;28;20109;-79
2021/11/27 10:12:15;;;;;;;8.82;5.40;;;;;;;23.88;19.78;96161.09;5026130;28;20041;-79
2021/11/27 10:14:42;;;;;;;8.32;5.43;;;;;;;23.94;19.99;96167.59;5022889;28;20113;-80
2021/11/27 10:17:18;;;;;;;8.20;5.07;;;;;;;23.36;20.09;96170.19;5030602;28;20591;-81
2021/11/27 10:19:46;;;;;;;8.20;5.50;;;;;;;22.80;21.44;96178.47;5030402;28;20363;-80
2021/11/27 10:22:25;;;;;;;8.45;5.43;;;;;;;23.36;21.37;96176.53;5033928;28;20045;-79
2021/11/27 10:24:52;;;;;;;8.27;5.15;;;;;;;24.24;20.05;96181.72;5021996;28;20029;-79
2021/11/27 10:27:22;;;;;;;8.43;5.45;;;;;;;24.55;19.75;96173.66;5034660;28;20397;-79
2021/11/27 10:30:07;;;;;;;8.77;6.22;;;;;;;24.96;18.92;96174.63;5034868;28;20079;-81
2021/11/27 10:32:36;;;;;;;7.70;5.22;;;;;;;24.98;19.62;96172.09;5029217;28;20548;-80
2021/11/27 10:35:06;;;;;;;7.43;5.28;;;;;;;24.75;19.78;96165.31;5031970;28;20558;-79
2021/11/27 10:37:53;;;;;;;8.90;4.93;;;;;;;25.02;19.58;96167.06;5030509;28;20037;-81
2021/11/27 10:40:30;;;;;;;11.73;5.90;;;;;;;25.39;19.13;96176.59;5032233;28;20493;-81
2021/11/27 10:43:05;;;;;;;6.63;5.03;;;;;;;25.72;18.35;96165.06;5027362;28;20033;-81
2021/11/27 10:45:34;;;;;;;7.20;5.20;;;;;;;26.25;17.82;96157.06;5034706;28;20379;-80
2021/11/27 10:48:39;;;;;;;11.18;6.03;;;;;;;26.47;17.79;96164.94;5034631;28;20084;-80
2021/11/27 10:51:05;;;;;;;5.40;4.00;;;;;;;26.64;18.21;96163.84;5020774;28;20468;-80
2021/11/27 10:53:37;;;;;;;9.68;5.30;;;;;;;27.19;17.39;96160.00;5033654;28;20025;-80
2021/11/27 10:56:10;;;;;;;8.55;5.18;;;;;;;27.43;16.95;96160.44;5033146;28;20033;-81
2021/11/27 10:58:59;;;;;;;7.90;5.20;;;;;;;26.49;16.61;96157.53;5034637;28;20026;-80
2021/11/27 11:01:25;;;;;;;6.95;4.72;;;;;;;26.18;17.82;96157.47;5033319;28;20068;-79
2021/11/27 11:03:52;;;;;;;7.43;4.50;;;;;;;26.72;17.95;96161.38;5034740;28;20049;-79
2021/11/27 11:06:21;;;;;;;5.90;4.28;;;;;;;26.54;17.47;96158.88;5034009;28;20034;-80
2021/11/27 11:08:49;;;;;;;5.97;4.28;;;;;;;26.48;17.91;96160.88;5028548;28;20551;-78
2021/11/27 11:11:24;;;;;;;7.25;4.85;;;;;;;26.80;17.70;96167.34;5031248;28;20076;-78
2021/11/27 11:13:56;;;;;;;6.28;4.95;;;;;;;26.37;18.18;96155.88;5033144;28;20048;-78
2021/11/27 11:16:33;;;;;;;7.85;5.38;;;;;;;25.70;18.00;96151.47;5033617;28;20041;-79
2021/11/27 11:19:16;;;;;;;6.40;4.47;;;;;;;25.21;18.02;96151.53;5029480;28;20044;-77
2021/11/27 11:22:08;;;;;;;8.23;5.40;;;;;;;25.87;17.55;96148.88;5033251;28;20049;-78
2021/11/27 11:24:38;;;;;;;3.30;2.58;;;;;;;25.94;17.62;96159.72;5033660;28;20064;-78
2021/11/27 11:27:08;;;;;;;4.13;3.05;;;;;;;26.39;17.28;96159.00;5027445;28;20518;-78
2021/11/27 11:29:49;;;;;;;2.60;2.22;;;;;;;26.96;16.90;96159.03;5026053;28;20018;-78
2021/11/27 11:32:17;;;;;;;3.35;2.25;;;;;;;26.84;16.45;96163.03;5031918;28;20034;-78
2021/11/27 11:34:45;;;;;;;3.50;2.60;;;;;;;26.84;16.76;96159.44;5027997;28;22402;-78
2021/11/27 11:37:11;;;;;;;3.90;2.60;;;;;;;26.73;17.41;96149.59;5029850;28;20111;-78
2021/11/27 11:39:38;;;;;;;2.80;1.88;;;;;;;26.99;16.94;96152.41;5031330;28;20045;-78